La Pryor, Texas
Current Conditions -  °F | °C
As of 11:15 PM on Sunday 19 Oct 2014 (Local Time) from KUVA Reporting Station
Clear Clear  
Wind Chill: 70°   Ceiling: Unl
Heat Index: 70°   Visibility: 10mi
Dew Point: 58°   Wind: 5mph
Humidity: 66%   Direction: 90°E
Pressure: 30.04"   Gusts: NA
Location:  28.94°N, 99.85°W
Report Text: KUVA 200415Z AUTO 09004KT 10SM CLR 21/15 A3004 RMK AO2 T02130147
Loading
Personal Weather Stations






























Interactive Weather Map
Tropical Storm Tracking
New forecast layout! Learn more

10-Day Weather Forecast

Advertisements
Track Severe Weather on mobile